Aron Lien

Chefscout - Viking
5 Dez 2027
Sonntag
Verarbeitung

Persönlichkeit

Anpassungsfähigkeit (10) Ehrgeiz (10) Kontroverse (16) Loyalität (15) Druck (10) Professionalität (1) Fairness (11) Temperament (17)

Profil

Trainerstil Demokratisch
Lizenz Nationale B
Entschlossenheit 8
Menschenführung 4
Motivation 5
Disziplin 4
Arbeitszufriedenheit
100%
Ermüdung
0%
Rolle Chefscout
Gehalt 70.4K p/W
Vertrag 14.03.2029

Leistung

Verhalten Gut
Trainingseffektivität
46%
Spielerentwicklung
30%
Verletzungsprävention
55%
Taktische Umsetzung
50%

Letzte Ereignisse

Empfahl ein Transferziel jetzt
Nahm an einer Scouting-Besprechung teil jetzt
Nahm an einer Scouting-Besprechung teil jetzt
Empfahl ein Transferziel jetzt
Nahm an einer Scouting-Besprechung teil jetzt
Empfahl ein Transferziel jetzt
Spieler begutachtet jetzt
Spieler begutachtet jetzt

Aktuell beobachtet

208
Spieler Verein Status Fähigkeit Vertrauen Beobachtet Zuletzt beobachtet Letzte Stimme
Morgan Guilavogui Real Salt Lake Aktiv 139 / 134 40% 2 04.12.2027 -
Alejo Cruz Juventud Aktiv 132 / 127 40% 2 04.12.2027 -
Dejan Joveljić Seattle Sounders Aktiv 143 / 121 40% 2 02.12.2027 -
Babis Kostoulas Queens Park Rangers Aktiv 137 / 145 40% 2 02.12.2027 -
Tom Cannon Sheffield United Aktiv 137 / 135 40% 1 02.12.2027 -
Edmund Baidoo Red Bull Salzburg Aktiv 141 / 129 40% 1 02.12.2027 -
Dani Díaz Real Sociedad Aktiv 110 / 132 40% 1 01.12.2027 -
Bossman Debra Haugesund Aktiv 102 / 98 40% 1 01.12.2027 -
Theo Corbeanu Toronto FC Aktiv 141 / 130 40% 4 29.11.2027 -
Musa Malik Ikorodu City Aktiv 97 / 98 40% 1 29.11.2027 -
William Wendt Stabaek Aktiv 101 / 109 40% 1 29.11.2027 -
Soufiane Benjdida Sporting Cristal Aktiv 125 / 123 40% 1 27.11.2027 -
Nikola Krstović Torino Aktiv 160 / 140 40% 1 27.11.2027 -
Yang Min-Hyeok Stevenage Aktiv 136 / 138 40% 1 27.11.2027 -
Alex Verón Vélez Aktiv 102 / 131 40% 1 27.11.2027 -
Germán Berterame Inter Miami CF Aktiv 152 / 131 40% 7 24.11.2027 -
Edwuin Cetré Estudiantes Aktiv 114 / 119 40% 5 24.11.2027 -
Alexis Cuello San Lorenzo Aktiv 136 / 119 40% 6 23.11.2027 -
Wilson Isidor Sheffield Wednesday Aktiv 135 / 147 40% 2 23.11.2027 -
Agustín Anello Philadelphia Union Aktiv 126 / 133 40% 4 22.11.2027 -
Edvard Pettersen Sandefjord Aktiv 110 / 108 40% 3 21.11.2027 -
Sindre Walle Egeli Ipswich Town Aktiv 143 / 135 40% 4 21.11.2027 -
Everton Bala Lokomotiv Plovdiv Aktiv 139 / 126 40% 2 21.11.2027 -
Myles Lewis-Skelly Leyton Orient Aktiv 138 / 157 40% 2 21.11.2027 -
Mohamed-Ali Cho Paris Saint-Germain Aktiv 141 / 138 40% 1 19.11.2027 -
Gianluca Scamacca Atalanta Aktiv 165 / 155 40% 1 19.11.2027 -
Dor Turgeman New England Revolution Aktiv 129 / 131 40% 5 18.11.2027 -
Miguel Rodríguez Caracas Aktiv 148 / 138 40% 1 16.11.2027 -
William Osula Derby County Aktiv 133 / 128 40% 1 16.11.2027 -
Emmanuel Latte Lath Atlanta United FC Aktiv 141 / 140 40% 2 15.11.2027 -
Hassan Beja AFC Leopards Aktiv 78 / 88 40% 1 15.11.2027 -
Oskar Spiten-Nysæter Molde Aktiv 108 / 123 40% 1 14.11.2027 Mehr Infos nötig
Rafael Navarro St. Louis CITY SC Aktiv 124 / 121 40% 4 13.11.2027 -
Tio Cipot NK Maribor Aktiv 113 / 121 40% 2 13.11.2027 -
Jørgen Strand Larsen Crystal Palace Aktiv 139 / 152 40% 1 12.11.2027 -
Kelvin Yeboah Minnesota United FC Aktiv 136 / 133 40% 3 11.11.2027 -
Mikkel Hope Haugesund Aktiv 105 / 105 40% 3 10.11.2027 -
Alex Amaefula Kun Khalifat Aktiv 80 / 81 40% 1 10.11.2027 -
Martín Ojeda Orlando City Aktiv 143 / 142 40% 7 09.11.2027 -
Raúl García Molde Aktiv 132 / 137 40% 3 09.11.2027 -
Xavier Biscayzacú Gimnasia La Plata Aktiv 123 / 132 40% 2 08.11.2027 -
Luis Otávio FC Dallas Aktiv 111 / 121 40% 1 07.11.2027 -
Joe Gelhardt Birmingham Aktiv 148 / 136 40% 1 06.11.2027 -
Josh King Charlton Athletic Aktiv 148 / 151 40% 1 04.11.2027 -
Bautista Carboni Defensores Unidos Aktiv 107 / 109 40% 1 04.11.2027 -
Luca Langoni New England Revolution Aktiv 120 / 126 40% 4 30.10.2027 -
Iliman N'Diaye Derby County Aktiv 167 / 158 40% 2 30.10.2027 -
Maurice Malone Minnesota United FC Aktiv 127 / 123 40% 2 29.10.2027 -
Franculino West Ham United Aktiv 145 / 145 40% 1 28.10.2027 -
Armindo Sieb Philadelphia Union Aktiv 138 / 125 40% 3 27.10.2027 -
Louis Munteanu DC United Aktiv 117 / 126 40% 2 27.10.2027 -
Tomás Conechny Racing Club Aktiv 112 / 125 40% 2 25.10.2027 -
Ola Brynhildsen Rosenborg Aktiv 137 / 123 40% 7 24.10.2027 -
Mateo Bajamich Atlético Tucumán Aktiv 131 / 118 40% 2 22.10.2027 -
Zeki Amdouni Burnley Aktiv 151 / 140 40% 1 21.10.2027 -
Alexander Aravena Portland Timbers Aktiv 114 / 132 40% 2 20.10.2027 -
Bongokuhle Hlongwane Minnesota United FC Aktiv 139 / 130 40% 3 20.10.2027 -
Cheikh Sabaly Vancouver Whitecaps Aktiv 135 / 127 40% 2 18.10.2027 -
Sam Surridge Nashville SC Aktiv 128 / 135 40% 5 17.10.2027 -
Vegard Erlien Tromso Aktiv 115 / 117 40% 2 17.10.2027 Mehr Infos nötig
Emersonn Northampton Town Aktiv 132 / 130 40% 2 15.10.2027 -
Seedy Jatta Sturm Graz Aktiv 131 / 121 40% 2 14.10.2027 -
Mateusz Bogusz Houston Dynamo Aktiv 124 / 129 40% 1 09.10.2027 -
Bénie Traoré New York City Aktiv 126 / 122 40% 2 04.10.2027 -
Victor Torp Coventry City Aktiv 125 / 133 40% 1 03.10.2027 -
George Hirst Stoke City Aktiv 148 / 133 40% 1 29.09.2027 -
Josh Sargent Toronto FC Aktiv 116 / 127 40% 2 26.09.2027 -
Wessam Abou Ali Columbus Crew Aktiv 123 / 136 40% 2 26.09.2027 -
Matías Abaldo Defensor Sporting Aktiv 124 / 127 40% 1 25.09.2027 -
Eli Junior Kroupi Swansea City Aktiv 132 / 144 40% 1 24.09.2027 -
Jesus Ferreira Seattle Sounders Aktiv 129 / 127 40% 2 23.09.2027 -
Antony Alonso Deportivo Riestra Aktiv 112 / 129 40% 1 23.09.2027 -
Kévin Denkey FC Cincinnati Aktiv 121 / 133 40% 2 21.09.2027 -
Talles Magno New York City Aktiv 125 / 139 40% 3 20.09.2027 -
Maximiliano Salas River Plate Aktiv 133 / 134 40% 1 19.09.2027 -
Ignacio Russo Tigre Aktiv 115 / 133 40% 1 19.09.2027 -
Tai Baribo DC United Aktiv 126 / 117 40% 1 18.09.2027 -
Aune Heggebø West Bromwich Albion Aktiv 120 / 136 40% 1 11.09.2027 -
Duncan McGuire Houston Dynamo Aktiv 114 / 133 40% 1 08.09.2027 -
Bruno Barticciotto Talleres Aktiv 128 / 120 40% 2 06.09.2027 -
Brandon Vázquez Austin FC Aktiv 111 / 119 40% 1 30.08.2027 -
Mateo Coronel Atlético Tucumán Aktiv 111 / 127 40% 1 28.08.2027 -
Daniel Karlsbakk Sarpsborg 08 Aktiv 130 / 127 40% 2 26.08.2027 Mehr Infos nötig
Tadeo Allende Inter Miami CF Aktiv 112 / 119 40% 2 24.08.2027 -
Lars Olden Larsen Tromso Aktiv 113 / 115 62% 1 02.08.2027 Befürworten
Filip Stojanovic NK Domzale Aktiv 124 / 124 66% 1 16.07.2027 Befürworten
Joel Mvuka Bodo/Glimt Verloren 120 / 124 67% 1 16.07.2027 -
Ole-Didrik Blomberg Bodo/Glimt Verloren 128 / 128 67% 1 16.07.2027 -
Fletcher Holman Swindon Town Aktiv 98 / 94 40% 1 15.07.2027 -
Dani Ángel Peterborough United Aktiv 108 / 102 40% 1 15.07.2027 -
Mamadou Doumbia Watford Aktiv 138 / 130 40% 1 14.07.2027 -
Iwan Morgan Grimsby Town Aktiv 109 / 112 40% 1 10.07.2027 -
Etsgar Cruz Notts County Aktiv 86 / 97 40% 1 09.07.2027 -
Tcherno Jamanca Porto Aktiv 69 / 86 40% 1 09.07.2027 -
Roberto Iliev Slavia Sofia Aktiv 110 / 103 40% 1 08.07.2027 -
Volodymyr Mulyk Kryvbas Aktiv 87 / 89 40% 1 06.07.2027 -
Ander Izarra Portuguesa Aktiv 91 / 92 40% 1 06.07.2027 -
Inti López River Plate Aktiv 99 / 102 40% 1 05.07.2027 -
Luciano Peluso Giugliano Aktiv 109 / 97 40% 1 29.03.2027 -
Caleb Yirenkyi Coventry City Aktiv 126 / 134 40% 1 29.03.2027 -
Haissem Hassan Bloemfontein Celtic Aktiv 150 / 140 40% 2 18.03.2027 -
Christos Mouzakitis Hull City Aktiv 141 / 144 40% 2 18.03.2027 -
Juan Manuel Boselli Krasnodar Aktiv 139 / 116 40% 2 15.03.2027 -
Andri Guðjohnsen Blackburn Rovers Aktiv 112 / 119 40% 1 15.03.2027 -
Romano Schmid Frosinone Aktiv 155 / 148 40% 1 01.03.2027 -
Bobby Clark Derby County Aktiv 132 / 128 40% 1 16.02.2027 -
Tom Fellows Southampton Aktiv 137 / 129 40% 1 16.02.2027 -
Pontus Dahlberg Lillestrom Aktiv 115 / 109 40% 1 08.02.2027 -
Vladan Kovačević Norwich City Aktiv 121 / 112 40% 1 08.02.2027 -
Joel Pereira Reading Aktiv 98 / 107 40% 1 05.02.2027 -
Radek Vítek Middlesbrough Aktiv 143 / 134 40% 1 05.02.2027 -
Kasper Høgh FC Copenhagen Aktiv 131 / 132 67% 1 01.02.2027 Befürworten
Patrick Agyemang Derby County Aktiv 121 / 131 40% 2 31.01.2027 -
Dean Mkhize Ajax Cape Town Aktiv 134 / 120 40% 3 31.01.2027 -
Dwight McNeil Crystal Palace Aktiv 139 / 143 40% 1 29.01.2027 -
Jovon Makama Norwich City Aktiv 138 / 129 40% 1 27.01.2027 -
Tomás Chancalay Minnesota United FC Aktiv 118 / 132 40% 1 26.01.2027 -
Ali Youssef Apollon Aktiv 115 / 116 40% 1 24.01.2027 -
Luther Kekana SuperSport United Aktiv 100 / 101 40% 1 24.01.2027 -
Maksym Korobov Dynamo Kyiv Aktiv 106 / 109 40% 1 24.01.2027 -
Ioannis Pittas CSKA Sofia Aktiv 135 / 112 40% 2 22.01.2027 -
Simen Bolkan Nordli Rosenborg Aktiv 115 / 126 40% 2 21.01.2027 -
Petar Stanić Ludogorets Aktiv 120 / 132 40% 1 21.01.2027 -
Jonathan Levi Ferencvaros Aktiv 121 / 115 40% 1 16.01.2027 -
Batxi Krasnodar Aktiv 146 / 134 40% 1 16.01.2027 -
Tommaso Cecotti Carpi Aktiv 87 / 95 40% 1 14.01.2027 -
Veljko Birmančević Ferencvaros Aktiv 119 / 142 40% 1 14.01.2027 -
Tomáš Chorý CSKA Moscow Aktiv 128 / 147 40% 1 14.01.2027 -
Filip Stojilković Pisa Aktiv 131 / 133 40% 1 13.01.2027 -
Marcelo Allende Mamelodi Sundowns Aktiv 148 / 136 40% 2 11.01.2027 -
Marquinhos Spartak Moscow Aktiv 132 / 121 40% 2 10.01.2027 -
Filip Kaloč Ludogorets Aktiv 124 / 131 40% 1 10.01.2027 -
Armstrong Oko-Flex Levski Aktiv 104 / 112 40% 3 09.01.2027 -
Sergey Pinyaev Lokomotiv Moscow Aktiv 123 / 136 40% 1 07.01.2027 -
Yarden Shua Beitar Jerusalem Aktiv 126 / 119 40% 1 03.01.2027 -
Samuel Kalu Botev Plovdiv Aktiv 122 / 112 40% 3 02.01.2027 -
Ammar Ramadan DAC Dunajska Streda Aktiv 110 / 130 40% 2 01.01.2027 -
Rahid Garayev Khazar Aktiv 127 / 116 40% 1 01.01.2027 -
Dmitry Vorobjov Krasnodar Aktiv 115 / 114 40% 2 31.12.2026 -
Kwadwo Duah Ludogorets Aktiv 144 / 123 40% 2 31.12.2026 -
German Onugkha Rodina Aktiv 137 / 114 40% 1 30.12.2026 -
Relebohile Mofokeng Orlando Pirates Aktiv 133 / 118 40% 1 28.12.2026 -
Nilson Angulo Sunderland Aktiv 131 / 135 40% 1 26.12.2026 -
Aljoša Matko Ujpest Aktiv 123 / 125 40% 1 24.12.2026 -
Arthur Gomes Dinamo Moscow Aktiv 129 / 122 40% 2 21.12.2026 -
Egas Cacintura Akhmat Grozny Aktiv 109 / 118 40% 1 17.12.2026 -
Karsten Ekorness Stabaek Aktiv 83 / 107 40% 2 15.12.2026 -
Veljko Milosavljević Newcastle United Aktiv 125 / 142 40% 1 15.12.2026 -
Nikolay Komlichenko Lokomotiv Moscow Aktiv 137 / 129 40% 1 13.12.2026 -
Jakob Vester Sandefjord Aktiv 109 / 119 40% 3 12.12.2026 -
Fillip Jenssen Riise Stabaek Aktiv 104 / 97 40% 4 09.12.2026 -
Sebastian Ademola Brighton Aktiv 79 / 101 40% 1 09.12.2026 -
Toni Fruk Ipswich Town Aktiv 116 / 123 40% 1 07.12.2026 -
João Muniz Sporting CP Aktiv 115 / 117 40% 2 06.12.2026 -
Filip Loftesnes-Bjune Sandefjord Aktiv 93 / 103 40% 4 05.12.2026 -
João Simões Sporting CP Aktiv 114 / 145 40% 2 04.12.2026 -
Anders Bondhus Haugesund Aktiv 90 / 91 40% 2 02.12.2026 -
Esequiel Barco Spartak Moscow Aktiv 152 / 139 40% 1 30.11.2026 -
Leandro Martins Benfica Aktiv 80 / 94 40% 1 30.11.2026 -
Gonçalo Oliveira Benfica Aktiv 101 / 121 40% 1 30.11.2026 -
Roman Dixon Walsall Aktiv 97 / 112 40% 1 26.11.2026 -
Efe Lucky Asante Kotoko Aktiv 103 / 100 40% 1 25.11.2026 -
Ezra Mayers West Ham United Aktiv 117 / 131 40% 2 24.11.2026 -
Aleksander Hammer Kjelsen Aalesund Aktiv 102 / 104 40% 1 24.11.2026 -
Mathias Jensen Brondby Aktiv 100 / 117 40% 2 21.11.2026 -
Adrian Skogmar Malmo FF Aktiv 116 / 114 40% 1 19.11.2026 -
Evangelos Patoulidis Sandefjord Aktiv 113 / 116 40% 2 18.11.2026 -
João Teixeira Porto Aktiv 123 / 108 40% 1 18.11.2026 -
Jack Fletcher Manchester United Aktiv 103 / 108 40% 1 18.11.2026 -
Conrad Wallem Bodo/Glimt Aktiv 131 / 132 40% 1 14.11.2026 -
Karim Coulibaly RC Strasbourg Aktiv 117 / 118 40% 1 12.11.2026 -
Almar Grindhaug Haugesund Aktiv 98 / 106 40% 1 11.11.2026 -
Andres Sinisterra Cortulua Aktiv 75 / 94 40% 1 11.11.2026 -
Josh Acheampong Chelsea Aktiv 132 / 153 40% 1 08.11.2026 -
Mathias Kjølø Rosenborg Aktiv 119 / 129 40% 1 08.11.2026 -
Halldor Stenevik Molde Aktiv 109 / 116 40% 1 07.11.2026 -
Fredrik Sjøvold Bodo/Glimt Aktiv 137 / 135 40% 1 03.11.2026 -
Alexander Warneryd Tromso Verloren 116 / 121 40% 6 02.11.2026 -
Eliás Montiel Atlético Madrid Aktiv 128 / 137 40% 1 30.10.2026 -
Emil Ceïde Rosenborg Aktiv 120 / 120 40% 1 27.10.2026 -
Odin Bjørtuft Bodo/Glimt Aktiv 132 / 126 40% 2 25.10.2026 -
Magnus Bech Riisnæs Lillestrom Aktiv 107 / 120 40% 3 25.10.2026 -
Brice Ambina Valerenga Aktiv 123 / 129 40% 1 22.10.2026 -
Dávid Ďuriš Rosenborg Aktiv 120 / 117 40% 1 20.10.2026 -
Surprise Manthosi Polokwane City Aktiv 95 / 102 40% 1 17.10.2026 -
Olaniyi Saheed Kwara United Aktiv 92 / 95 40% 1 16.10.2026 -
Juan Giménez Rayo Vallecano Aktiv 125 / 122 40% 1 16.10.2026 -
Emil Breivik Molde Aktiv 129 / 125 40% 1 15.10.2026 -
Gustavo Albarracín Alavés Aktiv 109 / 107 40% 1 09.10.2026 -
Roger Hinojo Espanyol Aktiv 120 / 115 40% 1 07.10.2026 -
Miguel Romano Atletico Venezuela Aktiv 94 / 108 40% 1 05.10.2026 -
Håkon Røsten Rosenborg Aktiv 101 / 107 40% 1 05.10.2026 -
Hugo Aviander GIF Sundsvall Aktiv 105 / 99 40% 1 02.10.2026 -
Daniel Dennis Ikorodu City Aktiv 79 / 93 40% 1 02.10.2026 -
Ibrahim Sabiu Bendel Insurance Aktiv 89 / 95 40% 1 27.09.2026 -
Kweku Kekeli Mjondalen Aktiv 95 / 99 40% 1 27.09.2026 -
Ronwen Vilakazi Ajax Cape Town Aktiv 95 / 100 40% 1 26.09.2026 -
Aleksander van der Spa Stromsgodset Aktiv 96 / 103 40% 1 22.09.2026 -
Jonny Shore New York City Aktiv 81 / 94 40% 1 19.09.2026 -
Harbor Miller LA Galaxy Aktiv 94 / 107 40% 1 17.09.2026 -
Thiago Acosta River Plate Aktiv 99 / 106 40% 1 16.09.2026 -
Tobias Dahl Rosenborg Aktiv 102 / 102 40% 1 11.09.2026 -
Ismaël Baouf Cambuur Aktiv 100 / 130 40% 1 11.09.2026 -
Nóel Atli Anórsson Aalborg Aktiv 84 / 94 40% 1 07.09.2026 -
Nazareno Roselli Defensa y Justicia Aktiv 106 / 128 40% 1 07.09.2026 -
Mukhtar Adamu Odd Aktiv 89 / 95 40% 1 12.08.2026 -
Lars Tanggaard Eide Haugesund Aktiv 73 / 95 40% 1 12.08.2026 -
Simen Haram Aalesund Aktiv 98 / 104 40% 1 10.08.2026 -